Time;durP1;ratioP1;P1;durP2;ratioP2;P2;SDS_P1;SDS_P2;PMS_P1;PMS_P2;Temp;Humidity;BMP_temperature;BMP_pressure;BME280_temperature;BME280_humidity;BME280_pressure;Samples;Min_cycle;Max_cycle;Signal;HPM_P1;HPM_P2
2022/06/04 00:00:08;;;;;;;4.85;2.50;;;;;;;;;;6155285;23;20010;-87
2022/06/04 00:02:37;;;;;;;4.07;2.25;;;;;;;;;;6159957;23;20031;-84
2022/06/04 00:05:04;;;;;;;4.07;2.70;;;;;;;;;;6170719;23;20013;-88
2022/06/04 00:07:30;;;;;;;3.20;2.50;;;;;;;;;;6162774;23;20032;-85
2022/06/04 00:15:30;;;;;;;3.92;2.60;;;;;;;;;;6156922;23;20069;-85
2022/06/04 00:17:57;;;;;;;4.45;2.78;;;;;;;;;;6156384;23;20025;-89
2022/06/04 00:20:23;;;;;;;5.57;2.45;;;;;;;;;;6156038;23;20010;-85
2022/06/04 00:22:49;;;;;;;4.15;2.50;;;;;;;;;;6155398;23;20013;-88
2022/06/04 00:25:16;;;;;;;4.13;2.55;;;;;;;;;;6155711;23;20011;-85
2022/06/04 00:27:42;;;;;;;4.68;2.60;;;;;;;;;;6155710;23;20001;-84
2022/06/04 00:30:09;;;;;;;4.22;2.83;;;;;;;;;;6155515;23;20013;-89
2022/06/04 00:32:35;;;;;;;4.82;2.80;;;;;;;;;;6155191;23;20029;-86
2022/06/04 00:35:02;;;;;;;4.60;2.65;;;;;;;;;;6155141;23;20089;-84
2022/06/04 00:37:31;;;;;;;4.35;2.40;;;;;;;;;;6155226;23;20001;-85
2022/06/04 00:39:58;;;;;;;4.28;2.38;;;;;;;;;;6130729;23;20041;-84
2022/06/04 00:42:25;;;;;;;4.40;2.42;;;;;;;;;;6155390;23;20081;-89
2022/06/04 00:45:01;;;;;;;5.45;2.30;;;;;;;;;;6155057;23;20014;-84
2022/06/04 00:47:28;;;;;;;6.57;2.50;;;;;;;;;;6155301;23;20101;-85
2022/06/04 00:49:55;;;;;;;4.72;2.50;;;;;;;;;;6155205;23;20001;-84
2022/06/04 00:52:22;;;;;;;5.97;3.30;;;;;;;;;;6155070;23;20006;-84
2022/06/04 00:54:52;;;;;;;5.70;2.78;;;;;;;;;;6156589;23;20428;-87
2022/06/04 00:57:18;;;;;;;6.05;3.10;;;;;;;;;;6155726;23;20096;-87
2022/06/04 00:59:54;;;;;;;5.63;2.70;;;;;;;;;;6157027;23;20008;-85
2022/06/04 01:02:30;;;;;;;6.97;2.85;;;;;;;;;;6159165;23;20016;-87
2022/06/04 01:05:14;;;;;;;5.63;2.90;;;;;;;;;;6157207;23;20014;-84
2022/06/04 01:07:59;;;;;;;5.30;3.17;;;;;;;;;;6156889;23;20029;-84
2022/06/04 01:10:31;;;;;;;4.55;2.58;;;;;;;;;;6157091;23;20002;-85
2022/06/04 01:12:57;;;;;;;5.65;2.67;;;;;;;;;;6156721;23;20009;-85
2022/06/04 01:15:28;;;;;;;5.30;2.67;;;;;;;;;;6157032;23;20006;-84
2022/06/04 01:18:05;;;;;;;7.45;2.75;;;;;;;;;;6158420;23;20029;-84
2022/06/04 01:20:40;;;;;;;4.15;2.65;;;;;;;;;;6156869;23;20005;-83
2022/06/04 01:23:07;;;;;;;5.32;2.83;;;;;;;;;;6156842;23;20012;-85
2022/06/04 01:25:33;;;;;;;6.30;3.50;;;;;;;;;;6156921;23;20010;-84
2022/06/04 01:28:05;;;;;;;6.40;3.20;;;;;;;;;;6157014;23;20005;-84
2022/06/04 01:30:39;;;;;;;5.53;3.00;;;;;;;;;;6156825;23;20009;-85
2022/06/04 01:33:08;;;;;;;4.80;2.78;;;;;;;;;;6156775;23;20060;-84
2022/06/04 01:35:37;;;;;;;5.10;2.60;;;;;;;;;;6158269;23;20004;-84
2022/06/04 01:38:11;;;;;;;7.55;3.25;;;;;;;;;;6158568;23;20010;-85
2022/06/04 01:43:29;;;;;;;6.43;2.70;;;;;;;;;;6158057;23;20024;-84
2022/06/04 01:45:57;;;;;;;5.03;2.70;;;;;;;;;;6156714;23;20431;-84
2022/06/04 01:48:25;;;;;;;5.35;2.70;;;;;;;;;;6156173;23;20049;-84
2022/06/04 01:50:57;;;;;;;7.80;2.60;;;;;;;;;;6156571;23;20327;-84
2022/06/04 01:53:27;;;;;;;5.13;2.72;;;;;;;;;;6157019;23;20009;-84
2022/06/04 01:55:58;;;;;;;8.75;2.95;;;;;;;;;;6156753;23;20005;-84
2022/06/04 01:58:48;;;;;;;6.10;2.78;;;;;;;;;;6156759;23;20009;-84
2022/06/04 02:01:17;;;;;;;6.13;2.60;;;;;;;;;;6120301;23;20001;-85
2022/06/04 02:03:58;;;;;;;5.35;2.55;;;;;;;;;;6156831;23;20013;-84
2022/06/04 02:06:27;;;;;;;6.20;2.80;;;;;;;;;;6156628;23;20339;-87
2022/06/04 02:08:59;;;;;;;8.63;3.58;;;;;;;;;;6156126;23;20056;-84
2022/06/04 02:11:26;;;;;;;5.65;2.75;;;;;;;;;;6156609;23;20388;-84
2022/06/04 02:13:54;;;;;;;5.10;3.08;;;;;;;;;;6156217;23;20028;-84
2022/06/04 02:16:26;;;;;;;5.50;2.90;;;;;;;;;;6159432;23;20063;-83
2022/06/04 02:18:52;;;;;;;6.82;3.50;;;;;;;;;;6156582;23;20009;-85
2022/06/04 02:21:18;;;;;;;5.72;3.20;;;;;;;;;;6156614;23;20559;-84
2022/06/04 02:23:49;;;;;;;7.70;3.00;;;;;;;;;;6156288;23;20014;-84
2022/06/04 02:26:17;;;;;;;6.55;3.05;;;;;;;;;;6156574;23;20017;-88
2022/06/04 02:28:43;;;;;;;5.05;3.20;;;;;;;;;;6156443;23;20010;-84
2022/06/04 02:31:13;;;;;;;6.20;3.50;;;;;;;;;;6159069;23;20002;-85
2022/06/04 02:33:59;;;;;;;7.25;4.05;;;;;;;;;;6156761;23;20451;-85
2022/06/04 02:36:42;;;;;;;7.05;3.33;;;;;;;;;;6157704;23;20008;-84
2022/06/04 02:39:18;;;;;;;4.70;2.90;;;;;;;;;;6156388;23;20139;-88
2022/06/04 02:41:48;;;;;;;6.28;3.15;;;;;;;;;;6156512;23;20030;-84
2022/06/04 02:44:17;;;;;;;5.90;3.03;;;;;;;;;;6156076;23;20052;-85
2022/06/04 02:46:52;;;;;;;7.00;3.38;;;;;;;;;;6155824;23;20006;-88
2022/06/04 02:49:24;;;;;;;7.15;3.30;;;;;;;;;;6156989;23;20116;-85
2022/06/04 02:51:52;;;;;;;6.30;3.10;;;;;;;;;;6131667;23;20005;-84
2022/06/04 02:54:21;;;;;;;7.30;3.78;;;;;;;;;;6156441;23;20279;-84
2022/06/04 02:56:49;;;;;;;6.75;3.65;;;;;;;;;;6131366;23;20014;-85
2022/06/04 02:59:16;;;;;;;6.95;3.47;;;;;;;;;;6131179;23;20060;-85
2022/06/04 03:01:44;;;;;;;9.73;3.60;;;;;;;;;;6131438;23;20009;-91
2022/06/04 03:04:10;;;;;;;8.52;4.07;;;;;;;;;;6130910;23;20339;-84
2022/06/04 03:06:37;;;;;;;9.85;3.70;;;;;;;;;;6131171;23;20084;-84
2022/06/04 03:09:08;;;;;;;6.68;3.28;;;;;;;;;;6157513;23;20032;-85
2022/06/04 03:11:46;;;;;;;5.60;3.22;;;;;;;;;;6131177;23;20001;-84
2022/06/04 03:14:13;;;;;;;6.05;3.60;;;;;;;;;;6157943;23;20001;-84
2022/06/04 03:16:40;;;;;;;5.82;3.38;;;;;;;;;;6165764;23;20002;-84
2022/06/04 03:19:10;;;;;;;6.93;3.25;;;;;;;;;;6165241;23;20031;-88
2022/06/04 03:21:40;;;;;;;4.18;2.88;;;;;;;;;;6131128;23;20006;-84
2022/06/04 03:24:07;;;;;;;6.63;3.47;;;;;;;;;;6152845;23;20021;-88
2022/06/04 03:26:34;;;;;;;6.43;3.20;;;;;;;;;;6157172;23;20002;-83
2022/06/04 03:29:00;;;;;;;7.10;3.20;;;;;;;;;;6132357;23;20092;-84
2022/06/04 03:31:27;;;;;;;6.65;3.45;;;;;;;;;;6155472;23;20005;-83
2022/06/04 03:33:53;;;;;;;6.43;3.03;;;;;;;;;;6155589;23;20316;-85
2022/06/04 03:36:21;;;;;;;7.13;3.08;;;;;;;;;;6131074;23;20036;-84
2022/06/04 03:38:47;;;;;;;5.22;2.95;;;;;;;;;;6156939;23;20423;-86
2022/06/04 03:41:13;;;;;;;5.97;3.10;;;;;;;;;;6130858;23;20029;-83
2022/06/04 03:43:39;;;;;;;5.72;2.78;;;;;;;;;;6130829;23;20013;-83
2022/06/04 03:46:05;;;;;;;8.20;2.97;;;;;;;;;;6155593;23;20331;-83
2022/06/04 03:48:34;;;;;;;6.38;3.00;;;;;;;;;;6155304;23;20092;-82
2022/06/04 03:51:00;;;;;;;5.60;2.83;;;;;;;;;;6130961;23;20387;-84
2022/06/04 03:53:27;;;;;;;5.72;3.17;;;;;;;;;;6131253;23;20005;-86
2022/06/04 03:55:53;;;;;;;5.60;3.13;;;;;;;;;;6155873;23;20060;-83
2022/06/04 03:58:19;;;;;;;6.90;3.03;;;;;;;;;;6156934;23;20319;-84
2022/06/04 04:00:46;;;;;;;8.35;3.30;;;;;;;;;;6131205;23;20012;-83
2022/06/04 04:03:13;;;;;;;4.90;3.38;;;;;;;;;;6159660;23;20092;-83
2022/06/04 04:05:59;;;;;;;7.97;3.25;;;;;;;;;;6132752;23;20056;-83
2022/06/04 04:08:26;;;;;;;5.93;3.50;;;;;;;;;;6130790;23;20006;-83
2022/06/04 04:10:52;;;;;;;5.47;3.58;;;;;;;;;;6157670;23;20012;-83
2022/06/04 04:13:19;;;;;;;5.85;3.20;;;;;;;;;;6130442;23;20055;-83
2022/06/04 04:15:45;;;;;;;5.45;3.20;;;;;;;;;;6130709;23;20340;-84
2022/06/04 04:18:12;;;;;;;7.20;3.60;;;;;;;;;;6130175;23;20025;-85
2022/06/04 04:20:41;;;;;;;6.10;3.00;;;;;;;;;;6155691;23;20016;-87
2022/06/04 04:23:07;;;;;;;6.18;2.78;;;;;;;;;;6157536;23;20347;-84
2022/06/04 04:25:35;;;;;;;8.07;2.85;;;;;;;;;;6129802;23;20020;-83
2022/06/04 04:28:01;;;;;;;11.18;3.08;;;;;;;;;;6130397;23;20002;-84
2022/06/04 04:30:29;;;;;;;7.72;2.45;;;;;;;;;;6130408;23;20087;-84
2022/06/04 04:32:56;;;;;;;7.07;2.40;;;;;;;;;;6130573;23;20415;-84
2022/06/04 04:35:24;;;;;;;9.18;2.45;;;;;;;;;;6129694;23;20039;-84
2022/06/04 04:37:51;;;;;;;7.70;2.80;;;;;;;;;;6155645;23;20028;-85
2022/06/04 04:40:18;;;;;;;7.78;2.38;;;;;;;;;;6130279;23;20032;-88
2022/06/04 04:42:45;;;;;;;10.30;2.90;;;;;;;;;;6131643;23;20009;-88
2022/06/04 04:45:12;;;;;;;11.27;2.95;;;;;;;;;;6130183;23;20331;-83
2022/06/04 04:47:40;;;;;;;10.95;2.78;;;;;;;;;;6139006;23;20017;-82
2022/06/04 04:50:08;;;;;;;7.43;2.50;;;;;;;;;;6154616;23;20009;-82
2022/06/04 04:52:34;;;;;;;11.15;2.70;;;;;;;;;;6154897;23;20002;-82
2022/06/04 04:55:00;;;;;;;8.23;2.38;;;;;;;;;;6154972;23;20013;-82
2022/06/04 04:57:26;;;;;;;9.93;2.60;;;;;;;;;;6155232;23;20006;-83
2022/06/04 04:59:52;;;;;;;11.02;2.97;;;;;;;;;;6156684;23;20009;-84
2022/06/04 05:02:19;;;;;;;7.25;2.42;;;;;;;;;;6156435;23;20006;-83
2022/06/04 05:04:45;;;;;;;8.60;2.60;;;;;;;;;;6154721;23;20439;-89
2022/06/04 05:07:12;;;;;;;11.00;2.90;;;;;;;;;;6155683;23;20012;-89
2022/06/04 05:09:39;;;;;;;12.68;2.63;;;;;;;;;;6156748;23;20009;-86
2022/06/04 05:12:06;;;;;;;8.90;2.55;;;;;;;;;;6155260;23;20063;-85
2022/06/04 05:14:32;;;;;;;8.93;2.58;;;;;;;;;;6157501;23;20025;-86
2022/06/04 05:16:58;;;;;;;7.35;2.47;;;;;;;;;;6155822;23;20096;-86
2022/06/04 05:19:25;;;;;;;8.40;2.67;;;;;;;;;;6159721;23;20334;-84
2022/06/04 05:21:52;;;;;;;7.68;2.45;;;;;;;;;;6156104;23;20013;-82
2022/06/04 05:24:21;;;;;;;7.57;2.10;;;;;;;;;;6154242;23;20018;-85
2022/06/04 05:26:47;;;;;;;11.25;2.70;;;;;;;;;;6154931;23;20005;-83
2022/06/04 05:29:14;;;;;;;9.40;2.67;;;;;;;;;;6154681;23;20092;-85
2022/06/04 05:31:40;;;;;;;10.07;2.47;;;;;;;;;;6154533;23;20001;-87
2022/06/04 05:34:07;;;;;;;8.90;2.50;;;;;;;;;;6155396;23;20010;-87
2022/06/04 05:36:33;;;;;;;12.00;2.75;;;;;;;;;;6156602;23;20044;-86
2022/06/04 05:38:59;;;;;;;8.77;2.13;;;;;;;;;;6155468;23;20014;-86
2022/06/04 05:41:25;;;;;;;8.43;2.47;;;;;;;;;;6155333;23;20001;-86
2022/06/04 05:43:59;;;;;;;16.83;3.00;;;;;;;;;;6161155;23;20021;-86
2022/06/04 05:46:25;;;;;;;15.00;5.28;;;;;;;;;;6157568;23;20056;-86
2022/06/04 05:48:52;;;;;;;14.77;4.90;;;;;;;;;;6158339;23;20049;-86
2022/06/04 05:51:22;;;;;;;50.17;19.13;;;;;;;;;;6158100;23;20005;-87
2022/06/04 05:53:55;;;;;;;9.57;2.75;;;;;;;;;;6159771;23;20010;-85
2022/06/04 05:56:26;;;;;;;8.57;2.17;;;;;;;;;;6196132;23;20024;-82
2022/06/04 05:58:53;;;;;;;8.32;2.30;;;;;;;;;;6191627;23;20005;-85
2022/06/04 06:01:20;;;;;;;7.85;2.13;;;;;;;;;;6191383;23;20008;-85
2022/06/04 06:03:47;;;;;;;7.22;1.98;;;;;;;;;;6200799;23;20039;-86
2022/06/04 06:06:15;;;;;;;12.10;2.38;;;;;;;;;;6198247;23;20055;-84
2022/06/04 06:08:41;;;;;;;10.40;2.92;;;;;;;;;;6220275;23;20004;-86
2022/06/04 06:11:12;;;;;;;10.60;2.25;;;;;;;;;;6192837;23;20059;-86
2022/06/04 06:13:38;;;;;;;10.60;2.53;;;;;;;;;;6200342;23;19999;-86
2022/06/04 06:16:09;;;;;;;7.93;2.15;;;;;;;;;;6195024;23;20011;-84
2022/06/04 06:18:36;;;;;;;9.60;2.55;;;;;;;;;;6194346;23;20001;-85
2022/06/04 06:21:09;;;;;;;13.88;3.67;;;;;;;;;;6193096;23;20088;-87
2022/06/04 06:23:35;;;;;;;104.43;21.30;;;;;;;;;;6191344;23;20106;-87
2022/06/04 06:26:21;;;;;;;6.18;2.28;;;;;;;;;;6191616;23;20004;-85
2022/06/04 06:28:47;;;;;;;8.77;2.30;;;;;;;;;;6191689;23;20008;-87
2022/06/04 06:31:14;;;;;;;10.40;2.55;;;;;;;;;;6226466;23;20000;-86
2022/06/04 06:33:41;;;;;;;11.27;2.65;;;;;;;;;;6206430;23;20031;-85
2022/06/04 06:36:11;;;;;;;10.90;2.15;;;;;;;;;;6192830;23;19997;-86
2022/06/04 06:38:38;;;;;;;9.85;2.45;;;;;;;;;;6191465;23;20088;-87
2022/06/04 06:41:05;;;;;;;5.60;1.73;;;;;;;;;;6191218;23;20083;-85
2022/06/04 06:43:39;;;;;;;9.98;2.30;;;;;;;;;;6191124;23;20016;-84
2022/06/04 06:46:16;;;;;;;5.53;1.90;;;;;;;;;;6199588;23;20358;-86
2022/06/04 06:48:45;;;;;;;8.73;1.98;;;;;;;;;;6198460;23;20501;-86
2022/06/04 06:51:15;;;;;;;9.07;1.92;;;;;;;;;;6191303;23;20047;-85
2022/06/04 06:53:41;;;;;;;9.63;1.95;;;;;;;;;;6190801;23;20434;-87
2022/06/04 06:56:18;;;;;;;6.10;1.75;;;;;;;;;;6217408;23;20504;-84
2022/06/04 06:58:44;;;;;;;8.73;2.00;;;;;;;;;;6190458;23;20007;-86
2022/06/04 07:01:11;;;;;;;9.25;1.75;;;;;;;;;;6191049;23;20009;-86
2022/06/04 07:03:41;;;;;;;11.13;1.80;;;;;;;;;;6190322;23;20091;-87
2022/06/04 07:06:09;;;;;;;10.02;2.13;;;;;;;;;;6191309;23;20005;-84
2022/06/04 07:08:36;;;;;;;8.70;1.67;;;;;;;;;;6191125;23;20090;-87
2022/06/04 07:11:02;;;;;;;8.77;1.85;;;;;;;;;;6191001;23;20008;-87
2022/06/04 07:13:29;;;;;;;7.00;2.03;;;;;;;;;;6217768;23;20072;-87
2022/06/04 07:15:55;;;;;;;6.72;1.70;;;;;;;;;;6190673;23;20366;-89
2022/06/04 07:18:23;;;;;;;10.30;2.30;;;;;;;;;;6190936;23;20088;-87
2022/06/04 07:20:49;;;;;;;8.70;2.20;;;;;;;;;;6190659;23;20009;-85
2022/06/04 07:23:16;;;;;;;8.05;2.38;;;;;;;;;;6190904;23;20051;-88
2022/06/04 07:25:44;;;;;;;8.07;2.30;;;;;;;;;;6191173;23;20426;-87
2022/06/04 07:28:11;;;;;;;7.13;1.80;;;;;;;;;;6190756;23;20059;-88
2022/06/04 07:30:38;;;;;;;6.57;2.08;;;;;;;;;;6190749;23;20000;-86
2022/06/04 07:33:06;;;;;;;6.50;1.65;;;;;;;;;;6191383;23;20020;-86
2022/06/04 07:35:33;;;;;;;9.48;2.67;;;;;;;;;;6216711;23;20000;-84
2022/06/04 07:37:59;;;;;;;12.63;2.78;;;;;;;;;;6190363;23;20100;-84
2022/06/04 07:40:25;;;;;;;9.27;2.47;;;;;;;;;;6190605;23;20425;-87
2022/06/04 07:42:52;;;;;;;10.18;2.50;;;;;;;;;;6190724;23;20051;-86
2022/06/04 07:45:18;;;;;;;8.80;2.78;;;;;;;;;;6190263;23;20011;-87
2022/06/04 07:47:45;;;;;;;7.47;2.70;;;;;;;;;;6217536;23;20075;-85
2022/06/04 07:50:12;;;;;;;6.45;2.92;;;;;;;;;;6217355;23;20008;-87
2022/06/04 07:52:39;;;;;;;8.20;2.50;;;;;;;;;;6190256;23;20008;-85
2022/06/04 07:55:07;;;;;;;7.00;2.42;;;;;;;;;;6221595;23;19997;-87
2022/06/04 07:57:34;;;;;;;10.27;2.65;;;;;;;;;;6228666;23;20023;-89
2022/06/04 08:00:01;;;;;;;8.75;2.42;;;;;;;;;;6224073;23;20051;-88
2022/06/04 08:02:27;;;;;;;9.27;3.22;;;;;;;;;;6192185;23;20059;-89
2022/06/04 08:04:54;;;;;;;7.95;3.35;;;;;;;;;;6191052;23;20040;-89
2022/06/04 08:07:24;;;;;;;13.02;6.13;;;;;;;;;;6190368;23;20007;-87
2022/06/04 08:09:51;;;;;;;11.45;6.50;;;;;;;;;;6190700;23;20009;-88
2022/06/04 08:12:18;;;;;;;12.10;6.78;;;;;;;;;;6190773;23;20008;-86
2022/06/04 08:14:45;;;;;;;12.38;6.45;;;;;;;;;;6190340;23;20091;-88
2022/06/04 08:17:12;;;;;;;12.52;7.15;;;;;;;;;;6190601;23;20008;-92
2022/06/04 08:19:38;;;;;;;9.70;5.15;;;;;;;;;;6190490;23;20008;-90
2022/06/04 08:22:05;;;;;;;12.07;5.30;;;;;;;;;;6190860;23;20011;-88
2022/06/04 08:24:31;;;;;;;6.72;4.45;;;;;;;;;;6189509;23;20076;-88
2022/06/04 08:26:58;;;;;;;7.65;4.15;;;;;;;;;;6188753;23;20086;-90
2022/06/04 08:29:25;;;;;;;9.52;5.13;;;;;;;;;;6188994;23;20023;-91
2022/06/04 08:31:51;;;;;;;10.70;5.10;;;;;;;;;;6190149;23;20027;-90
2022/06/04 08:34:17;;;;;;;5.95;3.67;;;;;;;;;;6189824;23;20007;-90
2022/06/04 08:36:44;;;;;;;9.05;3.75;;;;;;;;;;6189759;23;20019;-90
2022/06/04 08:39:10;;;;;;;4.20;2.58;;;;;;;;;;6190892;23;20087;-92
2022/06/04 08:41:43;;;;;;;5.05;3.55;;;;;;;;;;6190661;23;20031;-91
2022/06/04 08:44:12;;;;;;;4.32;2.78;;;;;;;;;;6190273;23;20020;-90
2022/06/04 08:47:07;;;;;;;6.05;3.03;;;;;;;;;;6190859;23;20426;-91
2022/06/04 08:49:46;;;;;;;6.25;3.30;;;;;;;;;;6159056;23;20012;-88
2022/06/04 08:52:17;;;;;;;6.57;4.63;;;;;;;;;;6190421;23;20009;-91
2022/06/04 08:57:33;;;;;;;6.30;4.70;;;;;;;;;;6216506;23;20059;-88
2022/06/04 09:00:08;;;;;;;8.52;5.05;;;;;;;;;;6216713;23;20582;-88
2022/06/04 09:02:44;;;;;;;6.85;4.15;;;;;;;;;;6190692;23;20004;-90
2022/06/04 09:05:36;;;;;;;5.38;3.58;;;;;;;;;;6190091;23;20013;-91
2022/06/04 09:08:06;;;;;;;9.60;3.88;;;;;;;;;;6183741;23;20047;-91
2022/06/04 09:10:38;;;;;;;9.70;4.85;;;;;;;;;;6192843;23;20339;-90
2022/06/04 09:13:07;;;;;;;7.93;4.50;;;;;;;;;;6190079;23;20016;-90
2022/06/04 09:15:45;;;;;;;8.18;4.00;;;;;;;;;;6190280;23;20005;-91
2022/06/04 09:28:06;;;;;;;6.47;3.83;;;;;;;;;;6178037;23;20028;-90
2022/06/04 09:36:45;;;;;;;7.90;3.45;;;;;;;;;;6069840;23;20086;-88
2022/06/04 09:39:22;;;;;;;4.78;3.47;;;;;;;;;;6045771;23;20089;-91
2022/06/04 09:41:52;;;;;;;5.15;3.20;;;;;;;;;;6142221;23;20079;-87
2022/06/04 09:44:18;;;;;;;5.03;3.97;;;;;;;;;;6193948;23;20119;-88
2022/06/04 09:46:46;;;;;;;4.07;2.80;;;;;;;;;;6207184;23;20028;-89
2022/06/04 09:49:18;;;;;;;5.60;3.10;;;;;;;;;;6198514;23;20078;-91
2022/06/04 09:51:44;;;;;;;5.35;3.13;;;;;;;;;;6192183;23;20001;-88
2022/06/04 09:54:25;;;;;;;6.72;3.88;;;;;;;;;;6192032;23;20058;-92
2022/06/04 09:56:53;;;;;;;4.80;2.80;;;;;;;;;;6192126;23;20434;-91
2022/06/04 09:59:29;;;;;;;5.40;3.22;;;;;;;;;;6192042;23;20008;-89
2022/06/04 10:01:57;;;;;;;4.95;2.88;;;;;;;;;;6191898;23;20422;-91
2022/06/04 10:04:24;;;;;;;4.65;3.00;;;;;;;;;;6191865;23;20027;-91
2022/06/04 10:06:50;;;;;;;4.28;2.38;;;;;;;;;;6191682;23;20488;-89
2022/06/04 10:12:05;;;;;;;4.07;2.72;;;;;;;;;;6220514;23;20104;-91
2022/06/04 10:14:31;;;;;;;5.45;3.13;;;;;;;;;;6192403;23;20009;-92
2022/06/04 10:16:58;;;;;;;4.75;2.40;;;;;;;;;;6191323;23;20123;-87
2022/06/04 10:19:25;;;;;;;4.07;2.55;;;;;;;;;;6191463;23;20008;-90
2022/06/04 10:22:06;;;;;;;4.47;2.55;;;;;;;;;;6191898;23;20054;-89
2022/06/04 10:24:36;;;;;;;4.45;2.75;;;;;;;;;;6191846;23;20446;-90
2022/06/04 10:27:05;;;;;;;5.25;2.80;;;;;;;;;;6191258;23;20001;-90
2022/06/04 10:29:32;;;;;;;4.35;2.40;;;;;;;;;;6192212;23;20412;-90
2022/06/04 10:32:08;;;;;;;5.93;1.85;;;;;;;;;;6191612;23;20422;-91
2022/06/04 10:34:46;;;;;;;4.45;2.38;;;;;;;;;;6191302;23;20095;-90
2022/06/04 10:37:21;;;;;;;3.38;2.20;;;;;;;;;;6191168;23;20070;-90
2022/06/04 10:40:06;;;;;;;4.55;1.95;;;;;;;;;;6191713;23;20012;-90
2022/06/04 10:42:56;;;;;;;4.85;2.20;;;;;;;;;;6193283;23;20079;-89
2022/06/04 10:45:46;;;;;;;3.65;2.40;;;;;;;;;;6191369;23;20062;-89
2022/06/04 10:48:27;;;;;;;4.00;2.00;;;;;;;;;;6169627;23;20012;-91
2022/06/04 10:54:08;;;;;;;4.50;2.55;;;;;;;;;;6217515;23;20023;-90
2022/06/04 10:56:37;;;;;;;3.88;1.85;;;;;;;;;;6191462;23;20013;-90
2022/06/04 10:59:09;;;;;;;2.40;1.77;;;;;;;;;;6191391;23;20004;-88
2022/06/04 11:01:39;;;;;;;3.75;2.00;;;;;;;;;;6191121;23;20016;-89
2022/06/04 11:04:07;;;;;;;3.10;1.80;;;;;;;;;;6191183;23;20019;-88
2022/06/04 11:06:40;;;;;;;4.38;2.30;;;;;;;;;;6199337;23;20008;-89
2022/06/04 11:09:10;;;;;;;4.82;2.63;;;;;;;;;;6191310;23;20028;-89
2022/06/04 11:11:51;;;;;;;5.78;2.72;;;;;;;;;;6191052;23;20004;-88
2022/06/04 11:14:35;;;;;;;6.83;3.10;;;;;;;;;;6190919;23;20014;-89
2022/06/04 11:17:06;;;;;;;5.45;2.42;;;;;;;;;;6191219;23;20240;-86
2022/06/04 11:19:41;;;;;;;3.92;2.40;;;;;;;;;;6190766;23;20066;-90
2022/06/04 11:22:14;;;;;;;6.82;3.05;;;;;;;;;;6190892;23;20031;-88
2022/06/04 11:24:52;;;;;;;2.97;2.00;;;;;;;;;;6191332;23;20011;-89
2022/06/04 11:27:25;;;;;;;3.30;1.80;;;;;;;;;;6185609;23;20103;-89
2022/06/04 11:29:55;;;;;;;3.90;2.00;;;;;;;;;;6185829;23;20382;-89
2022/06/04 11:32:34;;;;;;;5.75;1.88;;;;;;;;;;6185808;23;20005;-89
2022/06/04 11:35:08;;;;;;;2.83;1.77;;;;;;;;;;6187443;23;20020;-88
2022/06/04 11:37:53;;;;;;;3.10;1.88;;;;;;;;;;6185723;23;20001;-89
2022/06/04 11:40:28;;;;;;;3.65;2.00;;;;;;;;;;6185519;23;20036;-90
2022/06/04 11:42:56;;;;;;;3.00;1.92;;;;;;;;;;6185949;23;20437;-88
2022/06/04 11:45:46;;;;;;;3.67;2.13;;;;;;;;;;6185014;23;20009;-88
2022/06/04 11:48:31;;;;;;;3.00;1.90;;;;;;;;;;6185711;23;20005;-88
2022/06/04 11:51:15;;;;;;;2.30;1.67;;;;;;;;;;6185532;23;20001;-89
2022/06/04 11:53:53;;;;;;;3.60;2.10;;;;;;;;;;6184914;23;20024;-89
2022/06/04 11:56:38;;;;;;;4.07;2.00;;;;;;;;;;6186088;23;20009;-90
2022/06/04 11:59:14;;;;;;;3.45;1.88;;;;;;;;;;6185473;23;20005;-89
2022/06/04 12:01:59;;;;;;;3.92;1.52;;;;;;;;;;6185645;23;20028;-90
2022/06/04 12:04:25;;;;;;;4.35;1.70;;;;;;;;;;6189907;23;20430;-90
2022/06/04 12:06:55;;;;;;;2.88;1.42;;;;;;;;;;6185208;23;20091;-88
2022/06/04 12:09:50;;;;;;;3.58;1.50;;;;;;;;;;6185427;23;20096;-92
2022/06/04 12:12:21;;;;;;;9.07;1.60;;;;;;;;;;6185835;23;20001;-89
2022/06/04 12:14:59;;;;;;;3.03;1.50;;;;;;;;;;6184950;23;20020;-88
2022/06/04 12:17:29;;;;;;;3.45;1.48;;;;;;;;;;6185295;23;20051;-91
2022/06/04 12:25:42;;;;;;;5.55;1.60;;;;;;;;;;6187026;23;20068;-89
2022/06/04 12:28:24;;;;;;;2.78;1.67;;;;;;;;;;6185193;23;20021;-89
2022/06/04 12:30:54;;;;;;;3.25;1.42;;;;;;;;;;6187220;23;20009;-90
2022/06/04 12:33:28;;;;;;;4.75;1.85;;;;;;;;;;6190680;23;20048;-88
2022/06/04 12:36:05;;;;;;;4.40;1.48;;;;;;;;;;6185081;23;20012;-88
2022/06/04 12:38:36;;;;;;;3.45;1.50;;;;;;;;;;6185408;23;20001;-88
2022/06/04 12:41:05;;;;;;;3.03;1.47;;;;;;;;;;6185565;23;20083;-88
2022/06/04 12:43:35;;;;;;;3.13;1.77;;;;;;;;;;6185464;23;20009;-87
2022/06/04 12:46:07;;;;;;;4.30;1.80;;;;;;;;;;6190199;23;20001;-88
2022/06/04 12:48:36;;;;;;;4.90;1.58;;;;;;;;;;6196185;23;20013;-88
2022/06/04 12:51:07;;;;;;;2.90;1.90;;;;;;;;;;6187348;23;20009;-89
2022/06/04 12:53:36;;;;;;;2.53;1.65;;;;;;;;;;6185103;23;20469;-88
2022/06/04 12:56:05;;;;;;;3.92;1.80;;;;;;;;;;6185666;23;20031;-89
2022/06/04 12:58:31;;;;;;;3.03;1.67;;;;;;;;;;6187298;23;20009;-90
2022/06/04 13:01:18;;;;;;;5.75;1.65;;;;;;;;;;6193696;23;20443;-89
2022/06/04 13:03:46;;;;;;;3.75;1.40;;;;;;;;;;6163609;23;20025;-90
2022/06/04 13:06:13;;;;;;;2.85;1.60;;;;;;;;;;6188537;23;20303;-88
2022/06/04 13:08:58;;;;;;;3.22;1.67;;;;;;;;;;6183713;23;20087;-88
2022/06/04 13:11:33;;;;;;;2.95;1.63;;;;;;;;;;6186799;23;20418;-90
2022/06/04 13:14:12;;;;;;;3.83;2.05;;;;;;;;;;6186879;23;20016;-88
2022/06/04 13:16:52;;;;;;;2.70;1.77;;;;;;;;;;6186999;23;20430;-87
2022/06/04 13:19:54;;;;;;;4.40;1.55;;;;;;;;;;6187051;23;20008;-89
2022/06/04 13:22:20;;;;;;;3.53;1.73;;;;;;;;;;6044337;23;20042;-89
2022/06/04 13:24:47;;;;;;;3.85;1.67;;;;;;;;;;6158656;23;20449;-87
2022/06/04 13:27:17;;;;;;;4.40;1.60;;;;;;;;;;6189180;23;20024;-90
2022/06/04 13:29:43;;;;;;;5.03;1.85;;;;;;;;;;6187055;23;20101;-88
2022/06/04 13:32:17;;;;;;;4.43;1.67;;;;;;;;;;6186392;23;20004;-87
2022/06/04 13:34:44;;;;;;;4.63;1.85;;;;;;;;;;6193169;23;20096;-88
2022/06/04 13:37:25;;;;;;;4.28;1.90;;;;;;;;;;6186977;23;20001;-87
2022/06/04 13:39:53;;;;;;;4.00;2.00;;;;;;;;;;6186971;23;20016;-87
2022/06/04 13:42:32;;;;;;;4.45;1.50;;;;;;;;;;6187111;23;20005;-88
2022/06/04 13:44:59;;;;;;;2.67;1.50;;;;;;;;;;6186774;23;20009;-88
2022/06/04 13:47:29;;;;;;;4.72;1.75;;;;;;;;;;6186761;23;20005;-87
2022/06/04 13:50:04;;;;;;;3.55;1.73;;;;;;;;;;6188299;23;20012;-91
2022/06/04 13:52:30;;;;;;;5.63;1.45;;;;;;;;;;6186598;23;20002;-89
2022/06/04 13:54:58;;;;;;;2.47;1.50;;;;;;;;;;6186174;23;20013;-90
2022/06/04 13:57:39;;;;;;;3.60;1.63;;;;;;;;;;6186834;23;20316;-88
2022/06/04 14:00:08;;;;;;;3.65;1.70;;;;;;;;;;6186802;23;20001;-89
2022/06/04 14:02:34;;;;;;;3.75;1.50;;;;;;;;;;6186607;23;20031;-88
2022/06/04 14:07:51;;;;;;;3.22;1.55;;;;;;;;;;6187867;23;20331;-87
2022/06/04 14:10:20;;;;;;;4.63;1.65;;;;;;;;;;6186685;23;20025;-89
2022/06/04 14:12:49;;;;;;;4.38;1.70;;;;;;;;;;6186641;23;20009;-87
2022/06/04 14:15:34;;;;;;;3.60;1.65;;;;;;;;;;6186326;23;20075;-88
2022/06/04 14:18:10;;;;;;;7.40;1.80;;;;;;;;;;6186540;23;20005;-87
2022/06/04 14:20:43;;;;;;;4.60;1.60;;;;;;;;;;6186001;23;20001;-88
2022/06/04 14:23:15;;;;;;;4.28;1.92;;;;;;;;;;6187973;23;20012;-89
2022/06/04 14:25:53;;;;;;;3.40;1.90;;;;;;;;;;6186751;23;20009;-89
2022/06/04 14:28:25;;;;;;;3.80;1.60;;;;;;;;;;6186249;23;20017;-88
2022/06/04 14:31:10;;;;;;;4.80;1.77;;;;;;;;;;6186304;23;20009;-89
2022/06/04 14:33:39;;;;;;;3.72;1.80;;;;;;;;;;6188993;23;20283;-89
2022/06/04 14:36:06;;;;;;;3.85;1.67;;;;;;;;;;6186360;23;20001;-89
2022/06/04 14:38:35;;;;;;;3.53;2.00;;;;;;;;;;6186291;23;20009;-89
2022/06/04 14:41:01;;;;;;;3.85;1.80;;;;;;;;;;6186138;23;20004;-89
2022/06/04 14:43:36;;;;;;;3.67;1.73;;;;;;;;;;6187725;23;19997;-87
2022/06/04 14:46:08;;;;;;;2.58;1.60;;;;;;;;;;6186537;23;20005;-89
2022/06/04 14:48:53;;;;;;;4.80;1.77;;;;;;;;;;6187542;23;20072;-88
2022/06/04 14:51:24;;;;;;;2.50;1.52;;;;;;;;;;6185603;23;20457;-89
2022/06/04 14:53:51;;;;;;;3.67;1.60;;;;;;;;;;6186306;23;20016;-89
2022/06/04 14:56:47;;;;;;;4.30;1.70;;;;;;;;;;6187666;23;20001;-87
2022/06/04 14:59:32;;;;;;;6.30;2.20;;;;;;;;;;6162008;23;20072;-89
2022/06/04 15:02:07;;;;;;;3.97;1.88;;;;;;;;;;6186126;23;20100;-89
2022/06/04 15:04:58;;;;;;;3.35;1.50;;;;;;;;;;6190781;23;20036;-89
2022/06/04 15:07:24;;;;;;;4.38;1.77;;;;;;;;;;6185585;23;20013;-87
2022/06/04 15:09:53;;;;;;;4.57;1.77;;;;;;;;;;6185966;23;20080;-86
2022/06/04 15:12:30;;;;;;;3.28;1.80;;;;;;;;;;6187711;23;20461;-89
2022/06/04 15:15:07;;;;;;;6.40;1.60;;;;;;;;;;6174835;23;20028;-86
2022/06/04 15:17:42;;;;;;;5.47;1.80;;;;;;;;;;6185609;23;20005;-89
2022/06/04 15:20:14;;;;;;;3.25;1.70;;;;;;;;;;6185279;23;20005;-88
2022/06/04 15:22:47;;;;;;;4.45;1.70;;;;;;;;;;6184605;23;20339;-88
2022/06/04 15:25:31;;;;;;;6.93;1.77;;;;;;;;;;6185658;23;20393;-88
2022/06/04 15:27:59;;;;;;;3.53;2.13;;;;;;;;;;6187247;23;20104;-88
2022/06/04 15:36:17;;;;;;;3.65;1.60;;;;;;;;;;6187023;23;20469;-88
2022/06/04 15:38:47;;;;;;;5.47;1.75;;;;;;;;;;6190166;23;19989;-86
2022/06/04 15:41:16;;;;;;;2.65;1.65;;;;;;;;;;6188302;23;20024;-88
2022/06/04 15:43:43;;;;;;;3.95;1.30;;;;;;;;;;6185662;23;20037;-88
2022/06/04 15:46:23;;;;;;;3.80;1.65;;;;;;;;;;6185562;23;20024;-88
2022/06/04 15:48:52;;;;;;;3.97;1.70;;;;;;;;;;6185988;23;20065;-88